Time;durP1;ratioP1;P1;durP2;ratioP2;P2;SDS_P1;SDS_P2;PMS_P1;PMS_P2;Temp;Humidity;BMP_temperature;BMP_pressure;BME280_temperature;BME280_humidity;BME280_pressure;Samples;Min_cycle;Max_cycle;Signal;HPM_P1;HPM_P2
2023/04/09 00:01:56;;;;;;;19.73;13.37;;;7.20;99.90;;;;;;5094739;28;20216;-49
2023/04/09 00:04:22;;;;;;;19.90;14.40;;;7.10;99.90;;;;;;5094792;28;20212;-48
2023/04/09 00:06:48;;;;;;;20.70;13.40;;;7.00;99.90;;;;;;5094988;28;20668;-48
2023/04/09 00:09:13;;;;;;;19.60;14.00;;;6.90;99.90;;;;;;5094769;28;20186;-48
2023/04/09 00:11:39;;;;;;;21.57;14.57;;;6.90;99.90;;;;;;5094927;28;20207;-49
2023/04/09 00:14:05;;;;;;;19.30;14.20;;;6.80;99.90;;;;;;5094682;28;20319;-54
2023/04/09 00:16:30;;;;;;;21.67;14.10;;;6.70;99.90;;;;;;5094666;28;20193;-46
2023/04/09 00:18:56;;;;;;;19.80;13.97;;;6.60;99.90;;;;;;5093709;28;20207;-46
2023/04/09 00:21:21;;;;;;;20.77;14.37;;;6.60;99.90;;;;;;5094478;28;20204;-45
2023/04/09 00:23:47;;;;;;;18.67;13.63;;;6.50;99.90;;;;;;5095036;28;20182;-48
2023/04/09 00:26:13;;;;;;;20.73;14.33;;;6.50;99.90;;;;;;5094809;28;20178;-46
2023/04/09 00:28:38;;;;;;;21.40;14.10;;;6.40;99.90;;;;;;5094896;28;20631;-47
2023/04/09 00:31:04;;;;;;;21.70;15.20;;;6.40;99.90;;;;;;5094297;28;20673;-48
2023/04/09 00:33:30;;;;;;;20.87;15.13;;;6.30;99.90;;;;;;5094261;28;20183;-48
2023/04/09 00:35:55;;;;;;;22.53;14.87;;;6.30;99.90;;;;;;5094287;28;20188;-47
2023/04/09 00:38:21;;;;;;;19.43;14.27;;;6.30;99.90;;;;;;5094147;28;20213;-46
2023/04/09 00:40:50;;;;;;;16.00;12.80;;;6.30;99.90;;;;;;5094349;28;20603;-48
2023/04/09 00:43:16;;;;;;;15.77;11.20;;;6.20;99.90;;;;;;5094187;28;20192;-50
2023/04/09 00:45:43;;;;;;;13.63;10.50;;;6.20;99.90;;;;;;5094398;28;20232;-49
2023/04/09 00:48:09;;;;;;;17.77;11.60;;;6.10;99.90;;;;;;5094824;28;20634;-48
2023/04/09 00:50:35;;;;;;;18.83;12.90;;;6.10;99.90;;;;;;5094315;28;20692;-48
2023/04/09 00:53:01;;;;;;;22.63;14.20;;;6.00;99.90;;;;;;5094142;28;20200;-47
2023/04/09 00:55:27;;;;;;;20.13;14.03;;;6.00;99.90;;;;;;5093964;28;20282;-48
2023/04/09 00:57:53;;;;;;;21.60;14.43;;;5.90;99.90;;;;;;5093990;28;20179;-47
2023/04/09 01:00:19;;;;;;;21.83;16.30;;;5.90;99.90;;;;;;5093762;28;20208;-47
2023/04/09 01:02:45;;;;;;;23.37;15.50;;;5.90;99.90;;;;;;5094073;28;20213;-48
2023/04/09 01:05:11;;;;;;;19.80;14.27;;;5.90;99.90;;;;;;5093888;28;20544;-48
2023/04/09 01:07:59;;;;;;;18.60;12.87;;;5.80;99.90;;;;;;5094039;28;20261;-48
2023/04/09 01:10:34;;;;;;;15.13;11.27;;;5.80;99.90;;;;;;5093806;28;20163;-47
2023/04/09 01:13:22;;;;;;;20.53;14.03;;;5.70;99.90;;;;;;5093974;28;20533;-48
2023/04/09 01:15:55;;;;;;;24.40;16.23;;;5.70;99.90;;;;;;5094237;28;20631;-48
2023/04/09 01:18:29;;;;;;;26.23;16.70;;;5.60;99.90;;;;;;5094010;28;20715;-48
2023/04/09 01:20:59;;;;;;;24.40;16.20;;;5.60;99.90;;;;;;5094227;28;20216;-48
2023/04/09 01:23:52;;;;;;;25.40;17.53;;;5.60;99.90;;;;;;5093961;28;20246;-48
2023/04/09 01:26:49;;;;;;;24.60;17.00;;;5.60;99.90;;;;;;5094007;28;20171;-48
2023/04/09 01:29:18;;;;;;;26.10;18.93;;;5.50;99.90;;;;;;5093574;28;20203;-47
2023/04/09 01:31:44;;;;;;;28.70;19.83;;;5.50;99.90;;;;;;5094653;28;20206;-47
2023/04/09 01:34:11;;;;;;;26.43;19.10;;;5.50;99.90;;;;;;5095484;28;20217;-47
2023/04/09 01:36:39;;;;;;;26.97;19.23;;;5.50;99.90;;;;;;5095616;28;20520;-47
2023/04/09 01:39:05;;;;;;;30.80;20.67;;;5.50;99.90;;;;;;5093325;28;20206;-48
2023/04/09 01:41:33;;;;;;;30.37;19.73;;;6.20;99.90;;;;;;5093978;28;20187;-49
2023/04/09 01:44:00;;;;;;;32.80;20.80;;;5.50;99.90;;;;;;5093292;28;20174;-47
2023/04/09 01:46:26;;;;;;;29.60;20.80;;;5.50;99.90;;;;;;5093257;28;20210;-48
2023/04/09 01:48:53;;;;;;;29.53;20.10;;;5.50;99.90;;;;;;5093266;28;20179;-48
2023/04/09 01:51:19;;;;;;;30.00;19.77;;;5.50;99.90;;;;;;5093411;28;20225;-47
2023/04/09 01:53:45;;;;;;;28.13;20.60;;;5.50;99.90;;;;;;5093547;28;20646;-47
2023/04/09 01:56:11;;;;;;;26.17;18.60;;;5.50;99.90;;;;;;5093357;28;20205;-48
2023/04/09 01:58:36;;;;;;;26.90;18.40;;;5.40;99.90;;;;;;5093109;28;20199;-48
2023/04/09 02:01:31;;;;;;;23.20;16.43;;;5.40;99.90;;;;;;5093269;28;20647;-48
2023/04/09 02:04:07;;;;;;;23.30;16.70;;;5.40;99.90;;;;;;5093168;28;20183;-48
2023/04/09 02:06:49;;;;;;;30.03;18.27;;;5.30;99.90;;;;;;5093740;28;20170;-47
2023/04/09 02:09:17;;;;;;;28.47;18.00;;;5.30;99.90;;;;;;5093057;28;20692;-47
2023/04/09 02:11:44;;;;;;;28.67;18.40;;;5.20;99.90;;;;;;5093145;28;20205;-49
2023/04/09 02:14:11;;;;;;;27.27;17.53;;;5.20;99.90;;;;;;5093256;28;20170;-47
2023/04/09 02:16:38;;;;;;;28.67;18.10;;;5.20;99.90;;;;;;5093278;28;20644;-47
2023/04/09 02:19:03;;;;;;;26.77;18.10;;;5.20;99.90;;;;;;5093008;28;20669;-48
2023/04/09 02:21:30;;;;;;;29.50;18.93;;;5.10;99.90;;;;;;5093587;28;20202;-48
2023/04/09 02:23:56;;;;;;;31.10;19.80;;;5.10;99.90;;;;;;5092989;28;20179;-47
2023/04/09 02:26:23;;;;;;;31.10;19.70;;;5.10;99.90;;;;;;5092994;28;20205;-47
2023/04/09 02:28:48;;;;;;;30.57;19.67;;;5.00;99.90;;;;;;5093217;28;20190;-48
2023/04/09 02:31:14;;;;;;;30.17;20.00;;;5.00;99.90;;;;;;5092813;28;20261;-47
2023/04/09 02:33:40;;;;;;;34.40;20.87;;;5.00;99.90;;;;;;5093202;28;20217;-49
2023/04/09 02:36:06;;;;;;;31.83;20.17;;;5.00;99.90;;;;;;5093169;28;20229;-46
2023/04/09 02:38:31;;;;;;;32.10;20.57;;;5.00;99.90;;;;;;5092800;28;20557;-49
2023/04/09 02:40:57;;;;;;;30.17;20.17;;;5.00;99.90;;;;;;5092928;28;20209;-48
2023/04/09 02:43:23;;;;;;;35.43;21.43;;;4.90;99.90;;;;;;5096261;28;20638;-49
2023/04/09 02:45:49;;;;;;;31.00;19.33;;;4.90;99.90;;;;;;5096626;28;20182;-48
2023/04/09 02:48:14;;;;;;;30.87;19.17;;;4.90;99.90;;;;;;5096396;28;20167;-48
2023/04/09 02:50:40;;;;;;;33.07;19.77;;;4.90;99.90;;;;;;5096561;28;20225;-48
2023/04/09 02:53:06;;;;;;;34.57;21.30;;;4.90;99.90;;;;;;5096144;28;20289;-48
2023/04/09 02:55:31;;;;;;;35.40;19.50;;;4.80;99.90;;;;;;5096479;28;20235;-48
2023/04/09 02:57:57;;;;;;;38.80;20.43;;;4.80;99.90;;;;;;5096674;28;20170;-49
2023/04/09 03:00:22;;;;;;;36.27;20.40;;;4.80;99.90;;;;;;5096182;28;20220;-48
2023/04/09 03:02:48;;;;;;;34.60;20.63;;;4.70;99.90;;;;;;5096498;28;20277;-49
2023/04/09 03:05:13;;;;;;;43.37;21.87;;;4.70;99.90;;;;;;5096767;28;20175;-47
2023/04/09 03:07:39;;;;;;;39.73;22.10;;;4.60;99.90;;;;;;5096315;28;20213;-47
2023/04/09 03:10:05;;;;;;;42.53;21.63;;;4.60;99.90;;;;;;5096641;28;20345;-48
2023/04/09 03:12:31;;;;;;;50.10;23.13;;;4.60;99.90;;;;;;5096070;28;20589;-48
2023/04/09 03:14:56;;;;;;;46.67;22.10;;;4.60;99.90;;;;;;5096110;28;20193;-47
2023/04/09 03:17:25;;;;;;;48.07;22.87;;;4.60;99.90;;;;;;5095856;28;20193;-47
2023/04/09 03:19:51;;;;;;;53.00;23.97;;;4.70;99.90;;;;;;5095886;28;20198;-47
2023/04/09 03:22:17;;;;;;;43.00;23.37;;;4.60;99.90;;;;;;5094335;28;20207;-47
2023/04/09 03:24:43;;;;;;;41.70;23.70;;;4.70;99.90;;;;;;5095633;28;20214;-48
2023/04/09 03:27:08;;;;;;;37.67;21.07;;;4.60;99.90;;;;;;5095897;28;20252;-48
2023/04/09 03:29:34;;;;;;;40.40;22.47;;;4.60;99.90;;;;;;5095860;28;20201;-47
2023/04/09 03:31:59;;;;;;;41.17;21.30;;;4.60;99.90;;;;;;5095428;28;20291;-47
2023/04/09 03:34:25;;;;;;;32.17;20.60;;;4.50;99.90;;;;;;5095579;28;20285;-47
2023/04/09 03:36:50;;;;;;;47.70;22.17;;;4.50;99.90;;;;;;5095438;28;20186;-46
2023/04/09 03:39:16;;;;;;;42.87;22.40;;;4.50;99.90;;;;;;5095847;28;20237;-47
2023/04/09 03:41:42;;;;;;;43.83;22.57;;;4.40;99.90;;;;;;5095330;28;20199;-48
2023/04/09 03:44:07;;;;;;;44.07;20.97;;;4.40;99.90;;;;;;5095408;28;20179;-47
2023/04/09 03:46:33;;;;;;;33.97;21.13;;;4.40;99.90;;;;;;5095852;28;20174;-48
2023/04/09 03:48:58;;;;;;;41.50;22.90;;;4.40;99.90;;;;;;5095136;28;20661;-48
2023/04/09 03:51:24;;;;;;;36.33;22.13;;;4.40;99.90;;;;;;5095101;28;20208;-47
2023/04/09 03:53:50;;;;;;;34.03;21.93;;;4.30;99.90;;;;;;5094285;28;20286;-48
2023/04/09 03:56:15;;;;;;;36.73;21.00;;;4.30;99.90;;;;;;5095348;28;20186;-49
2023/04/09 03:58:41;;;;;;;35.97;22.00;;;4.30;99.90;;;;;;5095040;28;20199;-48
2023/04/09 04:01:06;;;;;;;35.10;21.40;;;4.30;99.90;;;;;;5095152;28;20229;-46
2023/04/09 04:03:32;;;;;;;34.97;20.80;;;4.30;99.90;;;;;;5095039;28;20185;-46
2023/04/09 04:06:01;;;;;;;36.13;21.23;;;4.30;99.90;;;;;;5095731;28;20184;-48
2023/04/09 04:08:27;;;;;;;29.70;20.37;;;4.30;99.90;;;;;;5095212;28;20197;-48
2023/04/09 04:10:53;;;;;;;32.80;21.23;;;4.20;99.90;;;;;;5095097;28;20538;-49
2023/04/09 04:13:18;;;;;;;32.27;21.00;;;4.20;99.90;;;;;;5094884;28;20179;-48
2023/04/09 04:15:44;;;;;;;34.13;21.23;;;4.20;99.90;;;;;;5094862;28;20182;-46
2023/04/09 04:18:10;;;;;;;37.67;22.67;;;4.20;99.90;;;;;;5094766;28;20597;-46
2023/04/09 04:20:36;;;;;;;30.40;20.73;;;4.20;99.90;;;;;;5094588;28;20284;-48
2023/04/09 04:23:03;;;;;;;35.40;22.33;;;4.20;99.90;;;;;;5094577;28;20189;-49
2023/04/09 04:25:29;;;;;;;33.47;21.27;;;4.20;99.90;;;;;;5095115;28;20175;-48
2023/04/09 04:27:55;;;;;;;30.50;21.17;;;4.20;99.90;;;;;;5094992;28;20569;-48
2023/04/09 04:30:21;;;;;;;30.70;20.80;;;4.10;99.90;;;;;;5094700;28;20170;-48
2023/04/09 04:32:47;;;;;;;35.33;20.80;;;4.10;99.90;;;;;;5094956;28;20213;-48
2023/04/09 04:35:13;;;;;;;30.00;20.07;;;4.10;99.90;;;;;;5095224;28;20663;-47
2023/04/09 04:37:39;;;;;;;32.87;18.47;;;4.00;99.90;;;;;;5094883;28;20186;-49
2023/04/09 04:40:06;;;;;;;27.83;18.40;;;3.90;99.90;;;;;;5094689;28;20193;-48
2023/04/09 04:42:32;;;;;;;29.60;19.67;;;3.90;99.90;;;;;;5094692;28;20196;-48
2023/04/09 04:44:58;;;;;;;34.67;19.80;;;3.80;99.90;;;;;;5095644;28;20184;-47
2023/04/09 04:47:23;;;;;;;30.37;20.33;;;3.80;99.90;;;;;;5092956;28;20183;-48
2023/04/09 04:49:49;;;;;;;31.33;20.60;;;3.80;99.90;;;;;;5094166;28;20668;-47
2023/04/09 04:52:14;;;;;;;34.37;21.30;;;3.70;99.90;;;;;;5093925;28;20204;-47
2023/04/09 04:54:40;;;;;;;33.80;21.17;;;3.70;99.90;;;;;;5093985;28;20182;-48
2023/04/09 04:57:06;;;;;;;36.17;23.10;;;3.80;99.90;;;;;;5094126;28;20182;-47
2023/04/09 04:59:31;;;;;;;36.00;22.93;;;3.90;99.90;;;;;;5093872;28;20369;-47
2023/04/09 05:01:57;;;;;;;33.90;22.07;;;3.90;99.90;;;;;;5093713;28;20213;-48
2023/04/09 05:04:22;;;;;;;31.83;21.87;;;3.90;99.90;;;;;;5093471;28;20172;-48
2023/04/09 05:06:48;;;;;;;30.97;21.90;;;3.90;99.90;;;;;;5094371;28;20173;-48
2023/04/09 05:09:14;;;;;;;33.93;21.23;;;3.90;99.90;;;;;;5093808;28;20173;-47
2023/04/09 05:11:40;;;;;;;29.93;21.33;;;3.90;99.90;;;;;;5094385;28;20229;-46
2023/04/09 05:14:05;;;;;;;31.20;21.43;;;3.90;99.90;;;;;;5093844;28;20283;-45
2023/04/09 05:16:31;;;;;;;32.80;20.83;;;3.90;99.90;;;;;;5093730;28;20182;-48
2023/04/09 05:18:57;;;;;;;33.17;21.80;;;3.80;99.90;;;;;;5093668;28;20720;-47
2023/04/09 05:21:22;;;;;;;33.97;21.33;;;3.80;99.90;;;;;;5093520;28;20221;-47
2023/04/09 05:23:48;;;;;;;33.47;21.53;;;3.80;99.90;;;;;;5093770;28;20633;-46
2023/04/09 05:26:14;;;;;;;33.03;21.27;;;3.90;99.90;;;;;;5093722;28;20177;-48
2023/04/09 05:28:40;;;;;;;34.53;22.73;;;3.80;99.90;;;;;;5094025;28;20177;-47
2023/04/09 05:31:11;;;;;;;34.43;22.47;;;3.80;99.90;;;;;;5093379;28;20207;-46
2023/04/09 05:33:40;;;;;;;38.80;23.37;;;3.90;99.90;;;;;;5094194;28;20186;-44
2023/04/09 05:36:06;;;;;;;33.90;22.37;;;3.80;99.90;;;;;;5093792;28;20279;-47
2023/04/09 05:38:31;;;;;;;33.53;21.97;;;3.90;99.90;;;;;;5093319;28;20244;-47
2023/04/09 05:40:57;;;;;;;31.17;21.53;;;3.80;99.90;;;;;;5093574;28;20180;-46
2023/04/09 05:43:23;;;;;;;32.97;21.97;;;3.80;99.90;;;;;;5093610;28;20182;-45
2023/04/09 05:45:48;;;;;;;33.37;21.67;;;3.90;99.90;;;;;;5093340;28;20159;-46
2023/04/09 05:48:15;;;;;;;36.57;23.30;;;3.90;99.90;;;;;;5093550;28;20524;-46
2023/04/09 05:50:41;;;;;;;35.10;23.03;;;3.90;99.90;;;;;;5093517;28;20263;-46
2023/04/09 05:53:06;;;;;;;35.07;23.47;;;4.00;99.90;;;;;;5093200;28;20228;-48
2023/04/09 05:55:32;;;;;;;38.03;25.03;;;4.00;99.90;;;;;;5093537;28;20183;-45
2023/04/09 05:57:58;;;;;;;42.97;25.23;;;4.10;99.90;;;;;;5093451;28;20646;-47
2023/04/09 06:00:23;;;;;;;38.87;24.80;;;4.10;99.90;;;;;;5093414;28;20213;-48
2023/04/09 06:02:49;;;;;;;44.87;26.23;;;4.20;99.90;;;;;;5093249;28;20577;-46
2023/04/09 06:05:15;;;;;;;42.73;26.73;;;4.30;99.90;;;;;;5093875;28;20272;-47
2023/04/09 06:07:40;;;;;;;43.30;27.93;;;4.40;99.90;;;;;;5093175;28;20174;-46
2023/04/09 06:10:07;;;;;;;39.80;26.37;;;4.40;99.90;;;;;;5093068;28;20176;-46
2023/04/09 06:12:35;;;;;;;42.47;27.50;;;4.50;99.90;;;;;;5093051;28;20230;-46
2023/04/09 06:15:02;;;;;;;42.70;27.07;;;4.60;99.90;;;;;;5093322;28;20177;-49
2023/04/09 06:17:28;;;;;;;43.70;27.50;;;4.70;99.90;;;;;;5095511;28;20650;-45
2023/04/09 06:19:54;;;;;;;43.73;28.57;;;4.80;99.90;;;;;;5097046;28;20211;-47
2023/04/09 06:22:19;;;;;;;47.33;27.87;;;4.90;99.90;;;;;;5096795;28;20220;-45
2023/04/09 06:24:45;;;;;;;45.93;27.40;;;5.00;99.90;;;;;;5096762;28;20641;-45
2023/04/09 06:27:11;;;;;;;42.73;28.07;;;5.20;99.90;;;;;;5096970;28;20219;-46
2023/04/09 06:29:36;;;;;;;46.37;28.60;;;5.40;99.90;;;;;;5096914;28;20533;-47
2023/04/09 06:32:02;;;;;;;45.80;27.03;;;5.60;99.90;;;;;;5095355;28;20210;-47
2023/04/09 06:34:28;;;;;;;40.47;25.80;;;5.80;99.90;;;;;;5096871;28;20189;-44
2023/04/09 06:36:54;;;;;;;43.37;27.20;;;6.00;99.90;;;;;;5096605;28;20177;-47
2023/04/09 06:39:20;;;;;;;47.13;29.03;;;6.20;99.90;;;;;;5096385;28;20217;-47
2023/04/09 06:41:46;;;;;;;46.27;29.07;;;6.40;99.90;;;;;;5096374;28;20198;-46
2023/04/09 06:44:12;;;;;;;48.10;28.47;;;6.50;99.90;;;;;;5096750;28;20636;-47
2023/04/09 06:46:37;;;;;;;44.83;26.83;;;6.70;99.90;;;;;;5096698;28;20692;-47
2023/04/09 06:49:03;;;;;;;42.07;25.60;;;6.90;99.90;;;;;;5096568;28;20206;-45
2023/04/09 06:51:28;;;;;;;41.10;25.97;;;7.20;99.90;;;;;;5096218;28;20201;-47
2023/04/09 06:53:54;;;;;;;35.97;23.17;;;7.30;99.90;;;;;;5096292;28;20181;-47
2023/04/09 06:56:19;;;;;;;37.47;23.57;;;7.50;99.90;;;;;;5096086;28;20189;-46
2023/04/09 06:58:46;;;;;;;37.47;23.20;;;7.60;99.90;;;;;;5096379;28;20205;-44
2023/04/09 07:01:11;;;;;;;41.07;25.10;;;7.80;99.90;;;;;;5095865;28;20244;-46
2023/04/09 07:03:37;;;;;;;35.77;22.67;;;7.80;99.90;;;;;;5096415;28;20241;-46
2023/04/09 07:06:03;;;;;;;37.53;23.70;;;7.90;99.90;;;;;;5096371;28;20244;-46
2023/04/09 07:08:28;;;;;;;28.07;19.10;;;8.10;99.90;;;;;;5095987;28;20710;-48
2023/04/09 07:10:54;;;;;;;32.97;21.43;;;8.20;99.90;;;;;;5095845;28;20266;-48
2023/04/09 07:13:20;;;;;;;29.50;19.50;;;8.30;99.90;;;;;;5095984;28;20210;-48
2023/04/09 07:15:45;;;;;;;31.33;20.07;;;8.50;99.90;;;;;;5095962;28;20667;-47
2023/04/09 07:18:11;;;;;;;27.00;18.03;;;8.70;99.90;;;;;;5096052;28;20183;-48
2023/04/09 07:20:36;;;;;;;24.60;16.53;;;8.80;99.90;;;;;;5095835;28;20170;-47
2023/04/09 07:23:02;;;;;;;24.67;16.97;;;9.00;99.90;;;;;;5095983;28;20639;-47
2023/04/09 07:25:27;;;;;;;26.90;17.03;;;9.10;99.90;;;;;;5096314;28;20176;-47
2023/04/09 07:27:53;;;;;;;23.90;16.20;;;9.40;99.90;;;;;;5094207;28;20270;-47
2023/04/09 07:30:19;;;;;;;23.03;15.47;;;9.50;99.90;;;;;;5095654;28;20175;-46
2023/04/09 07:32:44;;;;;;;22.37;15.37;;;9.60;99.90;;;;;;5095512;28;20195;-47
2023/04/09 07:35:10;;;;;;;21.93;15.00;;;9.70;99.90;;;;;;5095695;28;20173;-48
2023/04/09 07:37:37;;;;;;;22.40;14.87;;;9.80;99.90;;;;;;5095686;28;20230;-48
2023/04/09 07:40:02;;;;;;;18.83;13.70;;;10.00;99.90;;;;;;5095548;28;20228;-48
2023/04/09 07:42:28;;;;;;;19.93;13.60;;;10.00;99.90;;;;;;5095312;28;20608;-47
2023/04/09 07:44:55;;;;;;;21.67;13.07;;;10.10;99.90;;;;;;5095488;28;20182;-48
2023/04/09 07:47:22;;;;;;;20.10;13.90;;;10.20;99.90;;;;;;5095512;28;20185;-47
2023/04/09 07:49:47;;;;;;;18.20;13.00;;;10.30;99.90;;;;;;5095479;28;20184;-47
2023/04/09 07:52:13;;;;;;;17.53;13.30;;;10.40;99.90;;;;;;5095052;28;20193;-47
2023/04/09 07:54:39;;;;;;;19.70;13.33;;;10.40;99.90;;;;;;5095604;28;20217;-47
2023/04/09 07:57:05;;;;;;;18.00;13.17;;;10.50;99.90;;;;;;5096544;28;20175;-52
2023/04/09 07:59:32;;;;;;;18.70;12.70;;;10.60;99.90;;;;;;5095779;28;20692;-54
2023/04/09 08:01:57;;;;;;;19.03;13.47;;;10.70;99.90;;;;;;5095068;28;20207;-47
2023/04/09 08:04:23;;;;;;;19.10;13.60;;;10.80;99.90;;;;;;5094898;28;20178;-46
2023/04/09 08:06:49;;;;;;;17.80;12.07;;;10.90;99.90;;;;;;5095413;28;20177;-44
2023/04/09 08:09:17;;;;;;;18.73;13.57;;;10.90;99.90;;;;;;5094809;28;20186;-46
2023/04/09 08:11:44;;;;;;;20.67;13.63;;;11.00;99.90;;;;;;5095008;28;20203;-47
2023/04/09 08:14:11;;;;;;;20.93;14.80;;;11.10;99.90;;;;;;5094866;28;20182;-46
2023/04/09 08:16:41;;;;;;;20.90;14.67;;;11.20;99.90;;;;;;5094870;28;20186;-47
2023/04/09 08:19:10;;;;;;;19.67;14.17;;;11.30;99.90;;;;;;5095277;28;20218;-45
2023/04/09 08:21:41;;;;;;;18.57;13.67;;;11.50;99.90;;;;;;5094649;28;20608;-44
2023/04/09 08:24:07;;;;;;;18.07;14.00;;;11.70;99.90;;;;;;5093526;28;20159;-45
2023/04/09 08:26:33;;;;;;;18.77;12.30;;;11.70;99.90;;;;;;5094607;28;20183;-47
2023/04/09 08:28:59;;;;;;;18.97;12.77;;;11.80;99.90;;;;;;5094453;28;20270;-44
2023/04/09 08:31:24;;;;;;;17.30;13.03;;;11.80;99.90;;;;;;5094269;28;20199;-46
2023/04/09 08:33:52;;;;;;;18.50;13.00;;;12.00;99.90;;;;;;5095124;28;20189;-47
2023/04/09 08:36:18;;;;;;;19.07;14.17;;;12.10;99.90;;;;;;5094493;28;20183;-48
2023/04/09 08:38:45;;;;;;;19.20;13.30;;;12.10;99.90;;;;;;5094425;28;20218;-47
2023/04/09 08:41:19;;;;;;;20.13;12.97;;;12.20;99.90;;;;;;5094123;28;20198;-45
2023/04/09 08:43:47;;;;;;;17.60;13.33;;;12.30;99.90;;;;;;5094561;28;20159;-47
2023/04/09 08:46:16;;;;;;;16.23;13.30;;;12.40;99.90;;;;;;5094246;28;20179;-45
2023/04/09 08:48:46;;;;;;;17.43;12.77;;;12.50;99.90;;;;;;5094361;28;20210;-46
2023/04/09 08:51:16;;;;;;;15.17;11.53;;;12.60;99.90;;;;;;5094462;28;20209;-45
2023/04/09 08:53:55;;;;;;;16.03;11.37;;;12.70;99.90;;;;;;5093971;28;20198;-47
2023/04/09 08:56:21;;;;;;;16.10;11.73;;;12.80;99.90;;;;;;5094399;28;20194;-49
2023/04/09 08:58:47;;;;;;;17.00;12.13;;;13.00;99.90;;;;;;5093853;28;20678;-45
2023/04/09 09:01:25;;;;;;;14.83;11.20;;;13.00;99.90;;;;;;5093963;28;20241;-45
2023/04/09 09:03:59;;;;;;;16.00;13.03;;;13.10;99.90;;;;;;5094400;28;20175;-44
2023/04/09 09:06:27;;;;;;;15.70;10.63;;;13.20;99.90;;;;;;5094193;28;20155;-47
2023/04/09 09:09:07;;;;;;;12.47;9.33;;;13.30;99.90;;;;;;5093824;28;20183;-47
2023/04/09 09:11:37;;;;;;;13.63;9.50;;;13.40;99.90;;;;;;5093946;28;20194;-47
2023/04/09 09:14:11;;;;;;;14.47;10.60;;;13.50;99.90;;;;;;5093813;28;20176;-46
2023/04/09 09:16:41;;;;;;;15.87;10.90;;;13.50;99.90;;;;;;5093990;28;20170;-46
2023/04/09 09:19:27;;;;;;;13.87;10.33;;;13.60;99.90;;;;;;5093891;28;20582;-46
2023/04/09 09:22:04;;;;;;;13.67;10.40;;;13.60;99.90;;;;;;5093511;28;20190;-45
2023/04/09 09:24:31;;;;;;;12.77;9.53;;;13.60;99.90;;;;;;5093827;28;20163;-46
2023/04/09 09:26:57;;;;;;;13.40;9.37;;;13.70;99.90;;;;;;5093536;28;20216;-46
2023/04/09 09:29:24;;;;;;;13.43;9.73;;;13.70;99.90;;;;;;5093704;28;20265;-46
2023/04/09 09:31:51;;;;;;;14.73;10.37;;;13.80;99.90;;;;;;5093328;28;20199;-46
2023/04/09 09:34:18;;;;;;;12.53;9.60;;;13.90;99.90;;;;;;5093959;28;20582;-47
2023/04/09 09:36:45;;;;;;;13.17;9.50;;;13.90;99.90;;;;;;5093666;28;20183;-45
2023/04/09 09:39:12;;;;;;;13.63;9.93;;;14.00;99.90;;;;;;5093555;28;20199;-47
2023/04/09 09:41:39;;;;;;;12.60;9.17;;;14.00;99.90;;;;;;5093247;28;20202;-46
2023/04/09 09:44:06;;;;;;;12.50;8.60;;;14.10;99.90;;;;;;5093439;28;20175;-46
2023/04/09 09:46:35;;;;;;;11.90;8.67;;;14.10;99.90;;;;;;5093431;28;20167;-46
2023/04/09 09:49:01;;;;;;;10.20;7.37;;;14.20;99.90;;;;;;5093387;28;20645;-45
2023/04/09 09:51:27;;;;;;;8.13;6.43;;;14.20;99.90;;;;;;5095581;28;20201;-50
2023/04/09 09:53:55;;;;;;;10.20;7.40;;;14.30;99.90;;;;;;5098323;28;20561;-49
2023/04/09 09:56:24;;;;;;;7.90;5.40;;;14.40;99.90;;;;;;5097696;28;20309;-49
2023/04/09 09:59:06;;;;;;;8.00;6.13;;;14.50;99.90;;;;;;5097554;28;20571;-51
2023/04/09 10:01:33;;;;;;;6.23;4.93;;;14.60;99.90;;;;;;5097327;28;20324;-50
2023/04/09 10:04:04;;;;;;;6.90;4.47;;;14.60;99.90;;;;;;5097532;28;20648;-49
2023/04/09 10:06:33;;;;;;;7.87;5.20;;;14.70;99.90;;;;;;5097227;28;20178;-47
2023/04/09 10:09:03;;;;;;;5.63;4.47;;;14.80;99.90;;;;;;5097213;28;20187;-47
2023/04/09 10:11:30;;;;;;;7.63;5.30;;;14.90;99.90;;;;;;5097094;28;20195;-47
2023/04/09 10:13:57;;;;;;;6.13;4.67;;;14.90;99.90;;;;;;5097072;28;20178;-46
2023/04/09 10:16:25;;;;;;;5.53;4.80;;;15.00;99.90;;;;;;5097334;28;20213;-46
2023/04/09 10:18:52;;;;;;;5.17;4.30;;;15.10;99.90;;;;;;5097157;28;20194;-47
2023/04/09 10:21:34;;;;;;;7.00;4.97;;;15.10;99.90;;;;;;5097115;28;20217;-47
2023/04/09 10:24:04;;;;;;;7.40;4.57;;;15.20;99.90;;;;;;5097427;28;20163;-47
2023/04/09 10:26:32;;;;;;;7.33;4.77;;;15.20;99.90;;;;;;5097132;28;20155;-46
2023/04/09 10:29:28;;;;;;;5.63;4.90;;;15.30;99.90;;;;;;5097011;28;20179;-47
2023/04/09 10:32:05;;;;;;;5.27;3.73;;;15.40;99.90;;;;;;5095681;28;20298;-46
2023/04/09 10:34:35;;;;;;;5.67;4.50;;;15.40;99.90;;;;;;5096751;28;20163;-46
2023/04/09 10:37:01;;;;;;;5.00;4.37;;;15.40;99.90;;;;;;5096816;28;20171;-48
2023/04/09 10:39:30;;;;;;;6.27;3.97;;;15.40;99.90;;;;;;5096980;28;20210;-44
2023/04/09 10:41:57;;;;;;;4.10;3.70;;;15.50;99.90;;;;;;5096746;28;20206;-46
2023/04/09 10:44:25;;;;;;;4.80;4.30;;;15.50;99.90;;;;;;5096838;28;20635;-46
2023/04/09 10:46:55;;;;;;;4.97;4.33;;;15.60;99.90;;;;;;5096748;28;20175;-45
2023/04/09 10:49:21;;;;;;;5.00;4.23;;;15.80;99.90;;;;;;5096723;28;20186;-46
2023/04/09 10:51:50;;;;;;;5.97;4.87;;;15.80;99.90;;;;;;5095297;28;20198;-46
2023/04/09 10:54:42;;;;;;;5.30;4.67;;;15.90;99.90;;;;;;5096563;28;20185;-46
2023/04/09 10:57:08;;;;;;;5.83;4.63;;;16.20;99.90;;;;;;5096277;28;20690;-46
2023/04/09 10:59:45;;;;;;;6.53;4.53;;;16.00;99.90;;;;;;5096188;28;20298;-46
2023/04/09 11:02:34;;;;;;;6.13;4.70;;;16.10;99.90;;;;;;5095305;28;20202;-45
2023/04/09 11:05:11;;;;;;;6.40;5.23;;;16.30;99.90;;;;;;5096337;28;20232;-44
2023/04/09 11:07:42;;;;;;;5.97;5.13;;;16.40;99.90;;;;;;5096384;28;20166;-47
2023/04/09 11:10:08;;;;;;;5.83;5.10;;;16.60;99.90;;;;;;5096343;28;20167;-52
2023/04/09 11:12:34;;;;;;;5.97;4.80;;;16.70;99.90;;;;;;5095874;28;20289;-50
2023/04/09 11:14:59;;;;;;;5.80;4.73;;;16.80;99.90;;;;;;5095826;28;20666;-51
2023/04/09 11:17:26;;;;;;;6.90;4.40;;;16.80;99.90;;;;;;5096072;28;20185;-50
2023/04/09 11:19:51;;;;;;;5.70;4.87;;;16.90;99.90;;;;;;5095810;28;20199;-50
2023/04/09 11:22:17;;;;;;;6.17;5.10;;;17.00;99.90;;;;;;5095923;28;20711;-52
2023/04/09 11:24:44;;;;;;;9.43;5.03;;;17.00;99.90;;;;;;5095960;28;20541;-50
2023/04/09 11:27:09;;;;;;;6.37;5.07;;;17.00;99.90;;;;;;5095944;28;20538;-50
2023/04/09 11:29:35;;;;;;;5.60;4.63;;;17.10;99.90;;;;;;5095898;28;20171;-51
2023/04/09 11:32:04;;;;;;;5.30;4.80;;;17.00;99.90;;;;;;5095531;28;20698;-50
2023/04/09 11:34:30;;;;;;;7.87;4.73;;;17.10;99.90;;;;;;5095515;28;20650;-50
2023/04/09 11:36:57;;;;;;;4.93;4.20;;;17.10;99.90;;;;;;5095465;28;20258;-50
2023/04/09 11:39:23;;;;;;;6.83;4.70;;;17.00;99.90;;;;;;5095368;28;20534;-51
2023/04/09 11:41:49;;;;;;;4.30;3.90;;;17.10;99.90;;;;;;5095358;28;20292;-49
2023/04/09 11:44:14;;;;;;;4.27;3.87;;;17.20;99.90;;;;;;5095580;28;20641;-50
2023/04/09 11:46:41;;;;;;;6.43;5.20;;;17.30;99.90;;;;;;5095598;28;20175;-50
2023/04/09 11:49:08;;;;;;;6.27;5.10;;;17.40;99.90;;;;;;5095517;28;20183;-50
2023/04/09 11:51:34;;;;;;;5.87;4.70;;;17.50;99.90;;;;;;5095136;28;20230;-50
2023/04/09 11:54:05;;;;;;;5.97;5.37;;;17.40;99.90;;;;;;5095681;28;20576;-51
2023/04/09 11:56:31;;;;;;;4.97;4.43;;;17.50;99.90;;;;;;5095611;28;20186;-51
2023/04/09 11:58:57;;;;;;;6.03;4.70;;;17.50;99.90;;;;;;5094914;28;20244;-51
2023/04/09 12:01:23;;;;;;;5.70;5.10;;;17.60;99.90;;;;;;5095039;28;20211;-49
2023/04/09 12:03:55;;;;;;;6.03;5.10;;;17.70;99.90;;;;;;5094958;28;20533;-51
2023/04/09 12:06:23;;;;;;;5.20;4.50;;;17.70;99.90;;;;;;5094793;28;20183;-50
2023/04/09 12:08:56;;;;;;;6.67;4.67;;;17.60;99.90;;;;;;5094838;28;20194;-50
2023/04/09 12:11:28;;;;;;;5.40;4.53;;;17.60;99.90;;;;;;5094734;28;20198;-50
2023/04/09 12:14:05;;;;;;;7.30;5.00;;;17.60;99.90;;;;;;5094504;28;20167;-50
2023/04/09 12:16:35;;;;;;;4.90;4.40;;;17.70;99.90;;;;;;5094948;28;20163;-50
2023/04/09 12:19:02;;;;;;;4.60;4.10;;;17.80;99.90;;;;;;5094561;28;20249;-50
2023/04/09 12:21:53;;;;;;;5.50;4.57;;;17.90;99.90;;;;;;5094801;28;20215;-50
2023/04/09 12:24:20;;;;;;;4.20;3.80;;;18.00;99.90;;;;;;5094688;28;20619;-50
2023/04/09 12:26:46;;;;;;;6.70;4.50;;;18.00;99.90;;;;;;5094485;28;20174;-51
2023/04/09 12:29:16;;;;;;;5.80;4.60;;;18.00;99.90;;;;;;5094553;28;20182;-50
2023/04/09 12:31:43;;;;;;;5.07;4.40;;;18.10;99.90;;;;;;5094637;28;20195;-52
2023/04/09 12:34:08;;;;;;;4.70;4.20;;;18.00;99.90;;;;;;5094402;28;20178;-51
2023/04/09 12:36:41;;;;;;;5.70;4.10;;;18.00;99.90;;;;;;5091825;27;20611;-50
2023/04/09 12:39:08;;;;;;;4.83;4.33;;;18.00;99.90;;;;;;5091096;28;20171;-50
2023/04/09 12:41:34;;;;;;;4.40;3.97;;;18.00;99.90;;;;;;5091311;28;20563;-50